Time;durP1;ratioP1;P1;durP2;ratioP2;P2;SDS_P1;SDS_P2;PMS_P1;PMS_P2;Temp;Humidity;BMP_temperature;BMP_pressure;BME280_temperature;BME280_humidity;BME280_pressure;Samples;Min_cycle;Max_cycle;Signal;HPM_P1;HPM_P2
2021/12/06 00:00:41;;;;;;;44.67;23.88;;;1.80;99.90;;;;;;5066332;28;20028;-80
2021/12/06 00:03:11;;;;;;;44.88;24.20;;;2.10;99.90;;;;;;5077172;28;20115;-80
2021/12/06 00:05:37;;;;;;;43.90;23.00;;;1.80;99.90;;;;;;5073420;28;20198;-79
2021/12/06 00:08:03;;;;;;;42.47;22.55;;;1.80;99.90;;;;;;5094810;28;20051;-80
2021/12/06 00:10:29;;;;;;;44.50;23.13;;;1.80;99.90;;;;;;5074559;28;20377;-79
2021/12/06 00:12:55;;;;;;;38.85;22.67;;;1.80;99.90;;;;;;5090923;28;20113;-80
2021/12/06 00:15:21;;;;;;;43.50;22.85;;;1.90;99.90;;;;;;5069044;28;20373;-80
2021/12/06 00:17:47;;;;;;;39.97;21.40;;;1.90;99.90;;;;;;5079850;28;20447;-80
2021/12/06 00:20:14;;;;;;;43.15;22.17;;;1.90;99.90;;;;;;5075866;28;20143;-81
2021/12/06 00:22:41;;;;;;;41.10;21.95;;;1.80;99.90;;;;;;5052017;28;20067;-80
2021/12/06 00:25:09;;;;;;;43.22;22.77;;;1.80;99.90;;;;;;5066061;28;20387;-80
2021/12/06 00:27:38;;;;;;;42.92;21.63;;;1.90;99.90;;;;;;5052020;28;20050;-79
2021/12/06 00:30:06;;;;;;;45.55;23.38;;;1.80;99.90;;;;;;5054268;28;20047;-80
2021/12/06 00:32:32;;;;;;;43.92;22.50;;;1.80;99.90;;;;;;5080324;28;20070;-80
2021/12/06 00:34:58;;;;;;;41.80;22.17;;;1.80;99.90;;;;;;5069832;28;20042;-79
2021/12/06 00:37:31;;;;;;;44.40;23.80;;;1.80;99.90;;;;;;5071274;28;20040;-79
2021/12/06 00:39:59;;;;;;;45.08;22.48;;;1.80;99.90;;;;;;5072135;28;20090;-80
2021/12/06 00:42:30;;;;;;;45.00;23.75;;;1.80;99.90;;;;;;5063370;28;20039;-79
2021/12/06 00:44:57;;;;;;;44.10;23.13;;;1.80;99.90;;;;;;5065508;28;20039;-79
2021/12/06 00:47:22;;;;;;;45.38;24.85;;;1.80;99.90;;;;;;5089895;28;20044;-79
2021/12/06 00:49:50;;;;;;;40.50;22.75;;;1.80;99.90;;;;;;5076029;28;20040;-80
2021/12/06 00:52:16;;;;;;;46.30;24.35;;;1.80;99.90;;;;;;5062390;28;20050;-80
2021/12/06 00:54:42;;;;;;;41.95;23.27;;;1.80;99.90;;;;;;5059263;28;20051;-80
2021/12/06 00:57:11;;;;;;;43.92;23.52;;;1.80;99.90;;;;;;5070922;28;20108;-80
2021/12/06 00:59:38;;;;;;;43.08;22.60;;;1.80;99.90;;;;;;5071380;28;20112;-80
2021/12/06 01:02:06;;;;;;;43.33;23.00;;;1.80;99.90;;;;;;5057032;28;20048;-81
2021/12/06 01:04:36;;;;;;;42.28;22.30;;;1.80;99.90;;;;;;5073762;28;20051;-80
2021/12/06 01:07:04;;;;;;;42.10;22.45;;;1.80;99.90;;;;;;5056120;28;20043;-80
2021/12/06 01:09:30;;;;;;;44.80;23.42;;;1.80;99.90;;;;;;5051791;28;20058;-80
2021/12/06 01:11:55;;;;;;;43.00;22.90;;;1.80;99.90;;;;;;5072867;28;20497;-80
2021/12/06 01:14:22;;;;;;;48.85;23.90;;;1.80;99.90;;;;;;5087139;28;20044;-80
2021/12/06 01:16:48;;;;;;;43.60;23.33;;;1.80;99.90;;;;;;5056545;28;20039;-81
2021/12/06 01:19:14;;;;;;;42.28;23.15;;;1.80;99.90;;;;;;5068768;28;20701;-80
2021/12/06 01:21:48;;;;;;;46.53;24.70;;;1.80;99.90;;;;;;5068778;28;20075;-81
2021/12/06 01:24:17;;;;;;;46.90;24.45;;;1.90;99.90;;;;;;5070881;28;20405;-79
2021/12/06 01:27:07;;;;;;;47.13;25.52;;;1.90;99.90;;;;;;5088663;28;20086;-79
2021/12/06 01:32:20;;;;;;;44.08;24.10;;;1.90;99.90;;;;;;5074928;28;20127;-79
2021/12/06 01:40:18;;;;;;;48.03;24.17;;;1.90;99.90;;;;;;5080687;28;20083;-79
2021/12/06 01:42:44;;;;;;;43.33;23.52;;;1.80;99.90;;;;;;5058316;28;20397;-79
2021/12/06 01:45:10;;;;;;;47.20;24.33;;;1.80;99.90;;;;;;5070330;28;20402;-80
2021/12/06 01:47:38;;;;;;;47.92;24.15;;;1.80;99.90;;;;;;5078366;28;20074;-79
2021/12/06 01:50:09;;;;;;;46.03;24.60;;;1.80;99.90;;;;;;5056533;28;20043;-81
2021/12/06 01:52:39;;;;;;;47.88;24.30;;;1.80;99.90;;;;;;5069043;28;20051;-80
2021/12/06 01:55:09;;;;;;;48.83;25.15;;;1.80;99.90;;;;;;5067926;28;20592;-80
2021/12/06 01:57:35;;;;;;;44.65;22.35;;;1.80;99.90;;;;;;5063925;28;20063;-79
2021/12/06 02:00:04;;;;;;;49.28;24.98;;;2.20;99.90;;;;;;5062615;28;20077;-79
2021/12/06 02:02:30;;;;;;;53.03;26.35;;;1.80;99.90;;;;;;5067812;28;20066;-80
2021/12/06 02:04:56;;;;;;;51.10;26.02;;;1.80;99.90;;;;;;5071360;28;20044;-79
2021/12/06 02:07:24;;;;;;;50.90;26.70;;;1.80;99.90;;;;;;5070867;28;20569;-79
2021/12/06 02:09:51;;;;;;;49.25;23.73;;;1.80;99.90;;;;;;5055489;28;20523;-79
2021/12/06 02:12:18;;;;;;;53.63;26.38;;;1.80;99.90;;;;;;5054199;28;20048;-79
2021/12/06 02:15:03;;;;;;;48.17;24.30;;;1.80;99.90;;;;;;5068114;28;20257;-80
2021/12/06 02:17:37;;;;;;;51.50;24.45;;;1.80;99.90;;;;;;5074462;28;20524;-78
2021/12/06 02:20:10;;;;;;;53.97;25.27;;;1.80;99.90;;;;;;5077810;28;20048;-81
2021/12/06 02:22:39;;;;;;;52.70;25.13;;;1.80;99.90;;;;;;5079100;28;20032;-79
2021/12/06 02:25:08;;;;;;;52.33;25.35;;;1.80;99.90;;;;;;5052614;28;20094;-79
2021/12/06 02:27:34;;;;;;;51.60;25.20;;;1.80;99.90;;;;;;5056551;28;20416;-80
2021/12/06 02:30:03;;;;;;;55.55;26.45;;;1.80;99.90;;;;;;5077429;28;20043;-79
2021/12/06 02:32:29;;;;;;;55.50;25.92;;;1.80;99.90;;;;;;5071952;28;20051;-80
2021/12/06 02:34:56;;;;;;;55.22;26.92;;;1.80;99.90;;;;;;5076176;28;20035;-79
2021/12/06 02:37:28;;;;;;;55.63;27.02;;;1.80;99.90;;;;;;5059258;28;20108;-80
2021/12/06 02:39:54;;;;;;;58.97;28.08;;;1.80;99.90;;;;;;5075768;28;20044;-79
2021/12/06 02:42:22;;;;;;;57.42;26.02;;;1.80;99.90;;;;;;5070768;28;20052;-79
2021/12/06 02:44:48;;;;;;;58.55;28.10;;;1.80;99.90;;;;;;5074188;28;20051;-80
2021/12/06 02:47:16;;;;;;;56.92;27.05;;;1.80;99.90;;;;;;5073392;28;20076;-79
2021/12/06 02:49:43;;;;;;;56.33;27.27;;;1.80;99.90;;;;;;5074911;28;20048;-80
2021/12/06 02:52:11;;;;;;;57.17;26.92;;;1.80;99.90;;;;;;5075801;28;20536;-80
2021/12/06 02:54:37;;;;;;;52.67;26.75;;;1.80;99.90;;;;;;5085454;28;20161;-79
2021/12/06 02:59:39;;;;;;;58.42;28.73;;;1.80;99.90;;;;;;5074874;28;20105;-79
2021/12/06 03:02:10;;;;;;;56.78;27.42;;;1.80;99.90;;;;;;5055540;28;20391;-80
2021/12/06 03:04:37;;;;;;;57.38;26.38;;;1.80;99.90;;;;;;5075363;28;20124;-80
2021/12/06 03:07:04;;;;;;;56.35;26.30;;;1.80;99.90;;;;;;5075764;28;20036;-80
2021/12/06 03:09:34;;;;;;;60.22;27.45;;;1.80;99.90;;;;;;5079874;28;20062;-80
2021/12/06 03:12:05;;;;;;;51.55;25.58;;;1.90;99.90;;;;;;5080391;28;20122;-79
2021/12/06 03:14:34;;;;;;;55.70;26.25;;;1.80;99.90;;;;;;5079530;28;20047;-80
2021/12/06 03:17:05;;;;;;;62.92;28.77;;;1.90;99.90;;;;;;5059950;28;20115;-80
2021/12/06 03:19:31;;;;;;;57.70;27.47;;;1.90;99.90;;;;;;5064300;28;20059;-81
2021/12/06 03:21:56;;;;;;;58.42;27.92;;;1.90;99.90;;;;;;5069520;28;20655;-80
2021/12/06 03:24:22;;;;;;;54.53;25.30;;;1.90;99.90;;;;;;5078901;28;20047;-80
2021/12/06 03:26:50;;;;;;;54.25;26.23;;;1.90;99.90;;;;;;5079596;28;20131;-80
2021/12/06 03:29:16;;;;;;;56.22;26.70;;;1.90;99.90;;;;;;5064488;28;20056;-79
2021/12/06 03:31:42;;;;;;;55.25;26.85;;;1.90;99.90;;;;;;5078468;28;20047;-79
2021/12/06 03:34:09;;;;;;;53.78;25.33;;;1.90;99.90;;;;;;5070853;28;20507;-79
2021/12/06 03:36:37;;;;;;;58.50;26.50;;;1.90;99.90;;;;;;5047028;28;20055;-79
2021/12/06 03:39:07;;;;;;;57.25;26.73;;;1.90;99.90;;;;;;5062589;28;20048;-80
2021/12/06 03:41:33;;;;;;;58.58;27.48;;;1.90;99.90;;;;;;5066577;28;20157;-80
2021/12/06 03:43:59;;;;;;;58.30;26.42;;;1.90;99.90;;;;;;5072197;28;20156;-80
2021/12/06 03:46:28;;;;;;;58.45;26.05;;;1.90;99.90;;;;;;5081576;28;20553;-79
2021/12/06 03:48:54;;;;;;;59.38;26.55;;;1.90;99.90;;;;;;5065286;28;20461;-79
2021/12/06 03:51:20;;;;;;;56.35;27.83;;;1.90;99.90;;;;;;5080451;28;20044;-80
2021/12/06 03:53:46;;;;;;;59.97;27.40;;;1.90;99.90;;;;;;5080976;28;20043;-80
2021/12/06 03:56:13;;;;;;;55.35;26.92;;;1.90;99.90;;;;;;5070824;28;20052;-79
2021/12/06 03:58:39;;;;;;;62.08;27.42;;;2.00;99.90;;;;;;5066778;28;20037;-80
2021/12/06 04:01:06;;;;;;;63.53;30.13;;;1.90;99.90;;;;;;5072105;28;20126;-79
2021/12/06 04:03:34;;;;;;;58.35;28.20;;;2.00;99.90;;;;;;5067817;28;20052;-80
2021/12/06 04:06:02;;;;;;;60.95;27.55;;;1.90;99.90;;;;;;5069076;28;20159;-79
2021/12/06 04:08:27;;;;;;;63.42;30.73;;;1.90;99.90;;;;;;5055046;28;20058;-80
2021/12/06 04:10:55;;;;;;;67.30;31.27;;;1.90;99.90;;;;;;5086591;28;20041;-79
2021/12/06 04:13:22;;;;;;;62.58;28.67;;;1.90;99.90;;;;;;5064245;28;20044;-80
2021/12/06 04:15:48;;;;;;;65.80;28.98;;;1.90;99.90;;;;;;5068091;28;20052;-80
2021/12/06 04:18:14;;;;;;;59.35;28.35;;;1.90;99.90;;;;;;5057757;28;20113;-79
2021/12/06 04:20:40;;;;;;;63.92;29.58;;;1.90;99.90;;;;;;5072208;28;20044;-79
2021/12/06 04:23:08;;;;;;;68.80;29.25;;;1.90;99.90;;;;;;5072546;28;20044;-79
2021/12/06 04:25:35;;;;;;;64.78;29.15;;;2.00;99.90;;;;;;5069630;28;20058;-80
2021/12/06 04:28:06;;;;;;;64.13;28.00;;;1.90;99.90;;;;;;5072760;28;20032;-80
2021/12/06 04:30:32;;;;;;;66.50;30.57;;;2.00;99.90;;;;;;5060368;28;20058;-80
2021/12/06 04:32:59;;;;;;;61.25;27.63;;;2.00;99.90;;;;;;5059160;28;20394;-80
2021/12/06 04:35:25;;;;;;;64.35;29.48;;;2.00;99.90;;;;;;5073356;28;20066;-80
2021/12/06 04:37:52;;;;;;;62.80;30.10;;;2.00;99.90;;;;;;5069747;28;20055;-80
2021/12/06 04:40:18;;;;;;;68.13;29.00;;;2.00;99.90;;;;;;5053639;28;20048;-79
2021/12/06 04:42:44;;;;;;;62.80;27.42;;;2.00;99.90;;;;;;5054329;28;20047;-80
2021/12/06 04:45:11;;;;;;;63.30;27.27;;;2.00;99.90;;;;;;5068797;28;20162;-80
2021/12/06 04:47:37;;;;;;;61.58;30.90;;;2.00;99.90;;;;;;5068589;28;20512;-80
2021/12/06 04:50:06;;;;;;;61.72;28.08;;;2.00;99.90;;;;;;5055631;28;20071;-80
2021/12/06 04:52:32;;;;;;;59.90;28.77;;;2.00;99.90;;;;;;5057077;28;20533;-80
2021/12/06 04:55:00;;;;;;;61.45;28.48;;;2.00;99.90;;;;;;5072904;28;20431;-81
2021/12/06 04:57:35;;;;;;;56.70;26.05;;;2.00;99.90;;;;;;5051338;28;20055;-80
2021/12/06 05:00:20;;;;;;;60.85;26.60;;;2.00;99.90;;;;;;5056240;28;20048;-80
2021/12/06 05:02:46;;;;;;;57.78;26.58;;;2.00;99.90;;;;;;5074403;28;20053;-80
2021/12/06 05:05:17;;;;;;;60.67;25.10;;;1.90;99.90;;;;;;5078106;28;20086;-80
2021/12/06 05:07:52;;;;;;;62.10;27.80;;;2.00;99.90;;;;;;5073880;28;20079;-80
2021/12/06 05:10:18;;;;;;;62.28;28.33;;;2.00;99.90;;;;;;5089977;28;20072;-80
2021/12/06 05:12:44;;;;;;;62.35;28.35;;;1.90;99.90;;;;;;5057819;28;20045;-79
2021/12/06 05:15:12;;;;;;;59.70;25.52;;;2.00;99.90;;;;;;5059766;28;20058;-80
2021/12/06 05:17:38;;;;;;;63.85;28.45;;;2.00;99.90;;;;;;5073917;28;20036;-79
2021/12/06 05:20:05;;;;;;;60.47;25.77;;;2.00;99.90;;;;;;5075965;28;20048;-79
2021/12/06 05:22:33;;;;;;;62.38;27.23;;;1.90;99.90;;;;;;5080438;28;20146;-80
2021/12/06 05:24:58;;;;;;;63.42;27.77;;;1.90;99.90;;;;;;5081495;28;20036;-80
2021/12/06 05:27:28;;;;;;;66.78;27.85;;;1.90;99.90;;;;;;5081477;28;20184;-80
2021/12/06 05:29:58;;;;;;;66.88;28.25;;;1.90;99.90;;;;;;5077945;28;20049;-79
2021/12/06 05:32:29;;;;;;;65.07;29.00;;;1.90;99.90;;;;;;5084398;28;20056;-80
2021/12/06 05:35:02;;;;;;;68.13;29.60;;;1.90;99.90;;;;;;5072705;28;21080;-79
2021/12/06 05:37:28;;;;;;;66.95;28.30;;;2.00;99.90;;;;;;5094202;28;20452;-79
2021/12/06 05:39:54;;;;;;;69.75;29.58;;;2.00;99.90;;;;;;5072285;28;20044;-79
2021/12/06 05:42:20;;;;;;;73.68;29.52;;;2.00;99.90;;;;;;5076472;28;20064;-80
2021/12/06 05:44:46;;;;;;;70.80;29.27;;;2.00;99.90;;;;;;5079428;28;20028;-79
2021/12/06 05:47:12;;;;;;;71.55;28.27;;;2.00;99.90;;;;;;5063941;28;20056;-79
2021/12/06 05:49:41;;;;;;;75.65;30.50;;;2.00;99.90;;;;;;5061302;28;20051;-80
2021/12/06 05:52:07;;;;;;;68.13;28.98;;;2.00;99.90;;;;;;5063922;28;20044;-80
2021/12/06 05:54:33;;;;;;;70.97;29.60;;;2.00;99.90;;;;;;5068315;28;20493;-79
2021/12/06 05:56:59;;;;;;;71.70;28.75;;;2.00;99.90;;;;;;5062179;28;20094;-81
2021/12/06 05:59:26;;;;;;;65.05;28.73;;;2.00;99.90;;;;;;5074657;28;20036;-81
2021/12/06 06:01:54;;;;;;;69.78;28.17;;;2.10;99.90;;;;;;5054440;28;20479;-80
2021/12/06 06:04:20;;;;;;;68.95;28.15;;;2.00;99.90;;;;;;5068715;28;20048;-81
2021/12/06 06:06:46;;;;;;;65.95;27.65;;;2.00;99.90;;;;;;5053735;28;20055;-79
2021/12/06 06:09:15;;;;;;;69.45;28.50;;;2.00;99.90;;;;;;5065974;28;20416;-80
2021/12/06 06:11:41;;;;;;;65.32;27.02;;;2.00;99.90;;;;;;5069429;28;20055;-80
2021/12/06 06:14:08;;;;;;;70.72;29.00;;;2.00;99.90;;;;;;5063744;28;20047;-80
2021/12/06 06:16:47;;;;;;;71.20;28.10;;;2.00;99.90;;;;;;5053305;28;20044;-80
2021/12/06 06:19:19;;;;;;;79.95;29.23;;;2.00;99.90;;;;;;5055715;28;20492;-80
2021/12/06 06:21:45;;;;;;;79.35;31.80;;;2.00;99.90;;;;;;5056772;28;20048;-80
2021/12/06 06:24:11;;;;;;;79.22;30.33;;;2.00;99.90;;;;;;5072906;28;20052;-80
2021/12/06 06:26:37;;;;;;;79.40;30.80;;;2.30;99.90;;;;;;5083557;28;20504;-80
2021/12/06 06:29:03;;;;;;;74.85;27.63;;;2.00;99.90;;;;;;5070833;28;20474;-80
2021/12/06 06:31:29;;;;;;;63.17;26.15;;;1.90;99.90;;;;;;5071969;28;20067;-81
2021/12/06 06:33:54;;;;;;;73.80;30.83;;;2.00;99.90;;;;;;5078398;28;20036;-81
2021/12/06 06:36:20;;;;;;;67.03;26.25;;;2.00;99.90;;;;;;5076523;28;20437;-81
2021/12/06 06:38:45;;;;;;;81.10;28.77;;;2.00;99.90;;;;;;5049820;28;20040;-82
2021/12/06 06:41:11;;;;;;;73.38;28.30;;;1.90;99.90;;;;;;5073529;28;20508;-81
2021/12/06 06:43:37;;;;;;;70.40;29.73;;;1.90;99.90;;;;;;5063990;28;20087;-80
2021/12/06 06:46:06;;;;;;;76.82;29.45;;;1.90;99.90;;;;;;5061162;28;20040;-79
2021/12/06 06:48:32;;;;;;;81.90;29.05;;;1.90;99.90;;;;;;5073813;28;20513;-80
2021/12/06 06:50:59;;;;;;;73.40;27.58;;;1.90;99.90;;;;;;5076450;28;20040;-80
2021/12/06 06:53:26;;;;;;;70.90;26.92;;;1.90;99.90;;;;;;5051776;28;20401;-80
2021/12/06 06:55:53;;;;;;;78.80;28.45;;;1.90;99.90;;;;;;5087750;28;20410;-80
2021/12/06 06:58:20;;;;;;;81.53;30.08;;;1.90;99.90;;;;;;5073148;28;20868;-81
2021/12/06 07:00:45;;;;;;;81.93;30.85;;;1.90;99.90;;;;;;5058002;28;20050;-79
2021/12/06 07:03:11;;;;;;;85.85;27.83;;;1.90;99.90;;;;;;5052874;28;20546;-80
2021/12/06 07:05:41;;;;;;;75.30;27.05;;;1.90;99.90;;;;;;5089277;28;20173;-80
2021/12/06 07:08:07;;;;;;;72.97;27.48;;;1.90;99.90;;;;;;5086435;28;20048;-80
2021/12/06 07:10:33;;;;;;;87.35;28.48;;;1.90;99.90;;;;;;5070182;28;20055;-80
2021/12/06 07:13:03;;;;;;;83.95;29.13;;;1.90;99.90;;;;;;5066352;28;20048;-80
2021/12/06 07:15:34;;;;;;;95.22;33.70;;;1.90;99.90;;;;;;5083990;28;20055;-79
2021/12/06 07:18:01;;;;;;;83.68;29.45;;;2.70;99.90;;;;;;5068017;28;21607;-82
2021/12/06 07:20:27;;;;;;;76.93;28.95;;;1.90;99.90;;;;;;5053942;28;20171;-81
2021/12/06 07:22:53;;;;;;;77.97;29.23;;;1.90;99.90;;;;;;5059006;28;20039;-80
2021/12/06 07:25:22;;;;;;;77.68;27.42;;;1.90;99.90;;;;;;5057239;28;20043;-79
2021/12/06 07:27:48;;;;;;;79.82;29.08;;;1.90;99.90;;;;;;5072018;28;21701;-80
2021/12/06 07:30:16;;;;;;;87.50;29.70;;;1.90;99.90;;;;;;5070075;28;20054;-80
2021/12/06 07:32:42;;;;;;;84.95;30.15;;;1.90;99.90;;;;;;5072786;28;20757;-80
2021/12/06 07:35:10;;;;;;;90.45;30.67;;;1.90;99.90;;;;;;5056787;28;20051;-81
2021/12/06 07:37:36;;;;;;;86.05;29.10;;;1.90;99.90;;;;;;5073961;28;20172;-80
2021/12/06 07:40:05;;;;;;;81.20;28.70;;;1.90;99.90;;;;;;5080330;28;20047;-79
2021/12/06 07:42:31;;;;;;;86.50;30.73;;;1.90;99.90;;;;;;5087581;28;20051;-80
2021/12/06 07:44:56;;;;;;;85.15;28.55;;;1.90;99.90;;;;;;5074795;28;20043;-79
2021/12/06 07:47:22;;;;;;;85.35;29.60;;;1.90;99.90;;;;;;5070966;28;20134;-80
2021/12/06 07:49:48;;;;;;;86.93;30.20;;;1.90;99.90;;;;;;5064616;28;20649;-80
2021/12/06 07:52:14;;;;;;;77.38;28.27;;;2.00;99.90;;;;;;5073359;28;20055;-81
2021/12/06 07:54:40;;;;;;;81.28;28.27;;;2.00;99.90;;;;;;5087048;28;20419;-80
2021/12/06 07:57:07;;;;;;;85.93;29.27;;;2.00;99.90;;;;;;5085064;28;20198;-81
2021/12/06 07:59:34;;;;;;;83.22;30.02;;;2.00;99.90;;;;;;5085364;28;20404;-87
2021/12/06 08:02:01;;;;;;;75.85;28.05;;;2.00;99.90;;;;;;5082496;28;20086;-81
2021/12/06 08:04:27;;;;;;;74.97;26.27;;;2.00;99.90;;;;;;5103853;28;20130;-80
2021/12/06 08:06:52;;;;;;;87.70;30.33;;;2.00;99.90;;;;;;5088886;28;20160;-80
2021/12/06 08:09:18;;;;;;;84.25;30.40;;;2.00;99.90;;;;;;5088326;28;20461;-81
2021/12/06 08:11:44;;;;;;;100.15;32.08;;;2.00;99.90;;;;;;5081321;28;20043;-81
2021/12/06 08:14:10;;;;;;;80.82;29.30;;;2.00;99.90;;;;;;5073732;28;20063;-81
2021/12/06 08:16:43;;;;;;;80.38;32.38;;;2.90;99.90;;;;;;5088901;28;20051;-81
2021/12/06 08:19:10;;;;;;;85.22;32.25;;;2.00;99.90;;;;;;5072863;28;20492;-81
2021/12/06 08:21:37;;;;;;;78.03;28.27;;;2.10;99.90;;;;;;5091153;28;20052;-82
2021/12/06 08:24:03;;;;;;;92.07;33.28;;;2.10;99.90;;;;;;5066886;28;20040;-82
2021/12/06 08:26:33;;;;;;;95.25;32.83;;;2.10;99.90;;;;;;5088241;28;20055;-81
2021/12/06 08:29:02;;;;;;;78.18;28.25;;;2.10;99.90;;;;;;5083461;28;20048;-81
2021/12/06 08:31:29;;;;;;;83.72;29.92;;;2.10;99.90;;;;;;5064636;28;20051;-81
2021/12/06 08:33:55;;;;;;;83.03;30.58;;;2.10;99.90;;;;;;5086302;27;20050;-82
2021/12/06 08:36:22;;;;;;;79.95;28.38;;;2.10;99.90;;;;;;5087308;28;20071;-81
2021/12/06 08:38:49;;;;;;;91.68;29.77;;;2.10;99.90;;;;;;5086716;28;20047;-81
2021/12/06 08:41:22;;;;;;;81.07;27.55;;;2.20;99.90;;;;;;5082563;28;20044;-81
2021/12/06 08:43:48;;;;;;;75.72;27.10;;;2.20;99.90;;;;;;5084997;28;20035;-81
2021/12/06 08:46:25;;;;;;;83.53;30.13;;;2.20;99.90;;;;;;5074700;28;20032;-82
2021/12/06 08:48:55;;;;;;;82.63;29.10;;;2.20;99.90;;;;;;5095510;28;20517;-80
2021/12/06 08:51:26;;;;;;;77.07;25.42;;;2.20;99.90;;;;;;5072146;28;20492;-81
2021/12/06 08:53:53;;;;;;;80.70;28.80;;;2.30;99.90;;;;;;5098044;28;20293;-82
2021/12/06 08:56:19;;;;;;;76.28;27.60;;;2.30;99.90;;;;;;5084783;28;20044;-82
2021/12/06 08:58:45;;;;;;;79.45;27.05;;;2.30;99.90;;;;;;5062917;28;20697;-81
2021/12/06 09:01:11;;;;;;;77.47;27.52;;;2.30;99.90;;;;;;5082897;28;20043;-81
2021/12/06 09:03:37;;;;;;;74.93;26.23;;;2.30;99.90;;;;;;5073333;28;20063;-81
2021/12/06 09:06:06;;;;;;;71.20;28.20;;;2.40;99.90;;;;;;5062301;28;20106;-81
2021/12/06 09:08:32;;;;;;;65.13;24.30;;;2.40;99.90;;;;;;5061232;28;20059;-81
2021/12/06 09:10:58;;;;;;;65.65;25.42;;;2.40;99.90;;;;;;5075144;28;20525;-81
2021/12/06 09:13:28;;;;;;;72.65;25.85;;;2.40;99.90;;;;;;5076524;28;20067;-82
2021/12/06 09:15:56;;;;;;;65.80;25.70;;;2.40;99.90;;;;;;5077292;28;20078;-82
2021/12/06 09:18:23;;;;;;;63.28;25.92;;;2.40;99.90;;;;;;5061106;28;20127;-81
2021/12/06 09:20:52;;;;;;;67.00;24.85;;;2.50;99.90;;;;;;5079939;28;20044;-81
2021/12/06 09:23:18;;;;;;;61.65;23.80;;;2.50;99.90;;;;;;5074546;28;20408;-81
2021/12/06 09:25:47;;;;;;;56.05;22.52;;;2.50;99.90;;;;;;5075200;28;20058;-81
2021/12/06 09:28:16;;;;;;;65.22;25.35;;;2.50;99.90;;;;;;5081708;28;20081;-81
2021/12/06 09:30:42;;;;;;;59.03;23.63;;;2.60;99.90;;;;;;5061133;28;20535;-81
2021/12/06 09:33:11;;;;;;;55.28;23.25;;;2.60;99.90;;;;;;5080223;28;20161;-81
2021/12/06 09:35:41;;;;;;;61.28;23.70;;;2.60;99.90;;;;;;5077668;28;20079;-81
2021/12/06 09:38:07;;;;;;;55.25;22.92;;;2.60;99.90;;;;;;5060920;28;20052;-83
2021/12/06 09:40:36;;;;;;;51.97;22.85;;;2.60;99.90;;;;;;5078544;28;20085;-85
2021/12/06 09:43:05;;;;;;;58.85;22.77;;;2.60;99.90;;;;;;5075771;28;20127;-81
2021/12/06 09:45:32;;;;;;;54.35;22.05;;;2.60;99.90;;;;;;5061030;28;20099;-82
2021/12/06 09:48:00;;;;;;;55.17;22.45;;;2.60;99.90;;;;;;5080929;28;20043;-81
2021/12/06 09:50:31;;;;;;;48.63;21.30;;;2.60;99.90;;;;;;5085222;28;20054;-81
2021/12/06 09:53:00;;;;;;;50.35;21.75;;;2.60;99.90;;;;;;5068710;28;20043;-84
2021/12/06 09:55:29;;;;;;;45.53;21.83;;;2.60;99.90;;;;;;5059502;28;20052;-82
2021/12/06 09:57:55;;;;;;;49.35;20.45;;;2.60;99.90;;;;;;5075113;28;20044;-81
2021/12/06 10:00:24;;;;;;;56.42;23.45;;;2.60;99.90;;;;;;5065756;28;20032;-81
2021/12/06 10:02:51;;;;;;;49.00;22.23;;;2.60;99.90;;;;;;5059577;28;20759;-81
2021/12/06 10:05:17;;;;;;;56.13;22.95;;;2.50;99.90;;;;;;5076755;28;20127;-81
2021/12/06 10:07:43;;;;;;;56.35;23.80;;;2.60;99.90;;;;;;5078419;28;20032;-81
2021/12/06 10:10:13;;;;;;;54.53;22.40;;;2.50;99.90;;;;;;5064741;28;20043;-81
2021/12/06 10:12:42;;;;;;;55.42;23.73;;;2.50;99.90;;;;;;5072649;28;20044;-81
2021/12/06 10:15:08;;;;;;;62.33;24.92;;;2.50;99.90;;;;;;5054760;28;20048;-81
2021/12/06 10:17:34;;;;;;;58.17;23.60;;;2.50;99.90;;;;;;5056728;28;20428;-81
2021/12/06 10:20:01;;;;;;;57.42;23.85;;;2.50;99.90;;;;;;5059849;28;20039;-82
2021/12/06 10:22:27;;;;;;;56.33;24.15;;;2.60;99.90;;;;;;5081750;28;20451;-82
2021/12/06 10:24:56;;;;;;;51.70;22.40;;;2.50;99.90;;;;;;5064107;28;20040;-82
2021/12/06 10:27:24;;;;;;;52.72;22.52;;;2.50;99.90;;;;;;5051855;28;20051;-80
2021/12/06 10:29:54;;;;;;;52.65;22.45;;;2.50;99.90;;;;;;5066109;28;20409;-81
2021/12/06 10:32:25;;;;;;;54.80;23.63;;;2.50;99.90;;;;;;5069231;28;20044;-82
2021/12/06 10:34:57;;;;;;;50.50;23.23;;;2.50;99.90;;;;;;5071423;28;20539;-82
2021/12/06 10:37:52;;;;;;;47.65;21.77;;;2.50;99.90;;;;;;5072039;28;20044;-81
2021/12/06 10:40:30;;;;;;;51.15;24.08;;;2.40;99.90;;;;;;5066882;28;20647;-81
2021/12/06 10:42:59;;;;;;;58.45;24.88;;;2.50;99.90;;;;;;5051249;28;21401;-81
2021/12/06 10:45:29;;;;;;;50.30;22.75;;;2.50;99.90;;;;;;5071462;28;20048;-81
2021/12/06 10:48:15;;;;;;;52.75;22.35;;;2.40;99.90;;;;;;5047891;28;20040;-82
2021/12/06 10:50:50;;;;;;;62.35;26.27;;;2.80;99.90;;;;;;5067973;28;20056;-82
2021/12/06 10:53:18;;;;;;;63.58;28.10;;;2.40;99.90;;;;;;5063292;28;20058;-81
2021/12/06 10:55:46;;;;;;;60.17;26.13;;;2.40;99.90;;;;;;5075641;28;20055;-81
2021/12/06 10:58:16;;;;;;;69.95;29.63;;;2.40;99.90;;;;;;5082650;28;20055;-81
2021/12/06 11:01:05;;;;;;;75.13;30.38;;;2.40;99.90;;;;;;5076922;28;20042;-80
2021/12/06 11:03:33;;;;;;;78.10;32.35;;;2.40;99.90;;;;;;5076428;28;20044;-81
2021/12/06 11:06:08;;;;;;;82.47;34.85;;;2.50;99.90;;;;;;5081493;28;20427;-80
2021/12/06 11:08:35;;;;;;;82.25;35.63;;;2.50;99.90;;;;;;5063576;28;20043;-80
2021/12/06 11:11:08;;;;;;;74.00;31.73;;;2.50;99.90;;;;;;5065006;28;20361;-81
2021/12/06 11:13:38;;;;;;;69.75;32.60;;;2.50;99.90;;;;;;5084386;28;20092;-81
2021/12/06 11:16:08;;;;;;;74.22;30.98;;;2.50;99.90;;;;;;5059723;28;20097;-81
2021/12/06 11:18:34;;;;;;;67.95;28.23;;;2.50;99.90;;;;;;5079222;28;20047;-81
2021/12/06 11:21:01;;;;;;;66.90;28.80;;;2.50;99.90;;;;;;5077830;28;20077;-81
2021/12/06 11:23:27;;;;;;;59.72;26.67;;;2.50;99.90;;;;;;5077717;28;20043;-81
2021/12/06 11:26:03;;;;;;;48.97;23.98;;;2.50;99.90;;;;;;5057281;28;20050;-81
2021/12/06 11:28:32;;;;;;;58.08;23.52;;;2.50;99.90;;;;;;5071686;28;20609;-81
2021/12/06 11:31:07;;;;;;;56.03;24.30;;;2.50;99.90;;;;;;5074394;28;20063;-82
2021/12/06 11:33:34;;;;;;;56.25;24.60;;;2.60;99.90;;;;;;5071700;28;20039;-81
2021/12/06 11:36:17;;;;;;;60.72;26.17;;;2.80;99.90;;;;;;5050292;28;20052;-83
2021/12/06 11:38:50;;;;;;;63.58;26.52;;;2.50;99.90;;;;;;5069655;28;20404;-83
2021/12/06 11:41:16;;;;;;;57.13;25.55;;;2.60;99.90;;;;;;5068323;28;20060;-81
2021/12/06 11:43:42;;;;;;;49.30;21.92;;;2.60;99.90;;;;;;5075546;28;20307;-81
2021/12/06 11:46:10;;;;;;;47.53;21.17;;;2.60;99.90;;;;;;5079968;28;20047;-80
2021/12/06 11:48:39;;;;;;;51.58;21.77;;;2.60;99.90;;;;;;5075330;28;20692;-81
2021/12/06 11:51:08;;;;;;;55.22;23.92;;;2.70;99.90;;;;;;5065413;28;20504;-80
2021/12/06 11:53:36;;;;;;;50.67;22.08;;;2.80;99.90;;;;;;5057262;28;20130;-82
2021/12/06 11:56:19;;;;;;;48.42;21.60;;;2.80;99.90;;;;;;5049863;28;20105;-79
2021/12/06 11:58:52;;;;;;;48.38;21.23;;;2.90;99.90;;;;;;5056955;28;20043;-82
2021/12/06 12:01:25;;;;;;;51.38;21.77;;;2.90;99.90;;;;;;5050786;28;20474;-81
2021/12/06 12:03:54;;;;;;;45.13;20.10;;;2.90;99.90;;;;;;5090003;28;20096;-83
2021/12/06 12:06:30;;;;;;;40.10;18.63;;;2.80;99.90;;;;;;5081133;28;20100;-80
2021/12/06 12:09:18;;;;;;;38.95;18.15;;;2.80;99.90;;;;;;5063670;28;20039;-81
2021/12/06 12:12:04;;;;;;;38.33;17.90;;;3.30;99.90;;;;;;5074704;28;20172;-82
2021/12/06 12:14:42;;;;;;;38.28;17.65;;;2.80;99.90;;;;;;5094165;28;20856;-81
2021/12/06 12:17:29;;;;;;;37.75;18.23;;;2.70;99.90;;;;;;5078565;28;20439;-82
2021/12/06 12:19:57;;;;;;;43.45;19.45;;;2.70;99.90;;;;;;5057143;28;20615;-80
2021/12/06 12:22:25;;;;;;;42.55;19.38;;;2.70;99.90;;;;;;5076655;28;20444;-82
2021/12/06 12:24:57;;;;;;;44.50;19.77;;;2.70;99.90;;;;;;5073386;28;20039;-81
2021/12/06 12:27:34;;;;;;;;;;;2.80;99.90;;;;;;5082397;28;20488;-81
2021/12/06 12:30:00;;;;;;;41.10;20.38;;;2.80;99.90;;;;;;5082248;28;19928;-82
2021/12/06 12:32:28;;;;;;;47.70;21.65;;;2.80;99.90;;;;;;5095655;28;20044;-82
2021/12/06 12:34:56;;;;;;;45.97;20.30;;;2.80;99.90;;;;;;5081618;28;20177;-82
2021/12/06 12:37:23;;;;;;;51.05;22.60;;;2.80;99.90;;;;;;5083579;28;20534;-82
2021/12/06 12:40:03;;;;;;;48.42;21.65;;;2.80;99.90;;;;;;5081861;28;20043;-81
2021/12/06 12:42:29;;;;;;;47.33;21.70;;;2.90;99.90;;;;;;5066317;28;20247;-82
2021/12/06 12:44:56;;;;;;;50.70;22.17;;;2.80;99.90;;;;;;5081318;28;20055;-82
2021/12/06 12:47:28;;;;;;;54.47;23.85;;;2.90;99.90;;;;;;5074322;28;20040;-81
2021/12/06 12:50:09;;;;;;;48.47;20.70;;;2.90;99.90;;;;;;5076898;28;20039;-81
2021/12/06 12:52:48;;;;;;;52.05;21.23;;;3.00;99.90;;;;;;5081136;28;20409;-79
2021/12/06 12:55:23;;;;;;;54.28;23.67;;;2.90;99.90;;;;;;5063945;28;20100;-80